Startpagina
METAR-TAF:

METAR-TAF

Vliegvelden :

Luchthaven Genève

Genève, Zwitserland

breedte: 46-15N, lengte: 006-08E, hoogte: 420 m

Actueel weer

Dit bericht is 33 minuten geleden gemaakt, om 12:50 UTC
Wind 5 kt uit het noordnoordoosten, variërend tussen het noorden en het noordoosten
Temperatuur 3°C
Vochtigheid 75%
Druk 1005 hPa
Zicht 10 km of meer
Geheel bewolkt op 1900 ft

METAR: LSGG 191250Z 03005KT 350V050 9999 OVC019 03/M01 Q1005 NOSIG

Tijdstip: 14:23 (13:23 UTC)

Verwachting

Dit bericht is 1 uur en het 58 minuten geleden gemaakt, om 11:25 UTC
Verwachting geldig van 19 om 12 UTC tot 20 om 18 UTC
Wind 10 kt uit het noordnoordoosten
Zicht 10 km of meer
Gebroken wolken op 2000 ft
Tijdelijke
van 19 om 17 UTC tot 20 om 06 UTC
Zicht: 3000 m
Gebroken wolken op 800 ft
lichte sneeuw

TAF: LSGG 191125Z 1912/2018 03010KT 9999 BKN020 TX04/1915Z TNM01/2006Z TX04/2015Z TEMPO 1917/2006 3000 -SN BKN008

Waarnemingen en weersverwachtingen van meer dan 4000 vliegvelden (METAR en TAF).

De beschikbare stations zijn de gele en rode punten op de kaart.

Ga met uw muis naar het station om de naam te zien.

Klik dan om waarnemingen en weersverwachtingen te zien.

kaart wijzigen: klik op de groene knoppen met een zwart kruis om in te zoomen, op de groene knop met een streepje om uit te zoomen of op de groene pijlen voor aangrenzende kaarten.


METAR-TAF: